createdAt,value
2022-08-03T00:00:24.194Z,18.90
2022-08-03T00:02:51.375Z,18.90
2022-08-03T00:05:18.182Z,18.90
2022-08-03T00:07:44.995Z,18.90
2022-08-03T00:10:13.473Z,18.90
2022-08-03T00:12:40.233Z,18.80
2022-08-03T00:15:08.231Z,18.90
2022-08-03T00:17:52.472Z,18.80
2022-08-03T00:20:21.799Z,18.80
2022-08-03T00:22:49.227Z,18.60
2022-08-03T00:25:16.407Z,18.50
2022-08-03T00:27:43.165Z,18.40
2022-08-03T00:30:10.881Z,18.40
2022-08-03T00:32:40.056Z,18.40
2022-08-03T00:35:18.250Z,18.40
2022-08-03T00:37:59.665Z,18.30
2022-08-03T00:40:26.957Z,18.30
2022-08-03T00:42:56.145Z,18.30
2022-08-03T00:45:28.520Z,18.20
2022-08-03T00:47:56.128Z,18.20
2022-08-03T00:50:24.585Z,18.20
2022-08-03T00:52:54.166Z,18.10
2022-08-03T00:55:21.276Z,18.20
2022-08-03T00:57:49.067Z,18.10
2022-08-03T01:00:19.165Z,18.20
2022-08-03T01:02:46.149Z,18.10
2022-08-03T01:05:13.826Z,18.10
2022-08-03T01:07:56.170Z,18.10
2022-08-03T01:10:39.376Z,18.10
2022-08-03T01:14:01.854Z,18.10
2022-08-03T01:16:05.513Z,18.00
2022-08-03T01:18:41.269Z,17.90
2022-08-03T01:21:12.530Z,17.90
2022-08-03T01:24:02.109Z,17.90
2022-08-03T01:26:58.354Z,17.90
2022-08-03T01:30:04.897Z,17.90
2022-08-03T01:33:00.980Z,17.80
2022-08-03T01:35:42.287Z,17.70
2022-08-03T01:38:15.592Z,17.70
2022-08-03T01:40:44.527Z,17.60
2022-08-03T01:44:26.756Z,17.60
2022-08-03T01:46:04.142Z,17.50
2022-08-03T01:48:32.608Z,17.50
2022-08-03T01:51:00.874Z,17.50
2022-08-03T01:53:28.715Z,17.50
2022-08-03T01:55:56.694Z,17.50
2022-08-03T01:58:25.580Z,17.50
2022-08-03T02:00:55.742Z,17.50
2022-08-03T02:03:26.778Z,17.60
2022-08-03T02:06:17.876Z,17.50
2022-08-03T02:08:44.754Z,17.50
2022-08-03T02:11:13.060Z,17.50
2022-08-03T02:13:40.896Z,17.50
2022-08-03T02:16:08.324Z,17.40
2022-08-03T02:18:39.225Z,17.30
2022-08-03T02:21:11.062Z,17.30
2022-08-03T02:23:38.658Z,17.20
2022-08-03T02:26:15.626Z,17.20
2022-08-03T02:28:47.431Z,17.30
2022-08-03T02:31:20.842Z,17.20
2022-08-03T02:34:00.343Z,17.20
2022-08-03T02:36:29.471Z,17.20
2022-08-03T02:39:00.856Z,17.10
2022-08-03T02:41:32.886Z,17.00
2022-08-03T02:44:06.445Z,17.00
2022-08-03T02:46:38.594Z,17.00
2022-08-03T02:49:50.821Z,16.90
2022-08-03T02:51:55.307Z,16.90
2022-08-03T02:54:24.984Z,16.90
2022-08-03T02:56:53.840Z,16.90
2022-08-03T02:59:21.510Z,16.90
2022-08-03T03:01:49.621Z,16.80
2022-08-03T03:04:17.143Z,16.80
2022-08-03T03:06:46.961Z,16.80
2022-08-03T03:09:15.345Z,16.80
2022-08-03T03:11:44.086Z,16.70
2022-08-03T03:14:13.367Z,16.70
2022-08-03T03:16:41.980Z,16.70
2022-08-03T03:19:11.381Z,16.60
2022-08-03T03:21:38.759Z,16.70
2022-08-03T03:24:06.475Z,16.70
2022-08-03T03:26:34.466Z,16.60
2022-08-03T03:29:02.555Z,16.60
2022-08-03T03:31:30.098Z,16.60
2022-08-03T03:34:00.138Z,16.60
2022-08-03T03:36:26.911Z,16.60
2022-08-03T03:38:53.775Z,16.50
2022-08-03T03:41:20.803Z,16.50
2022-08-03T03:43:49.295Z,16.60
2022-08-03T03:46:18.318Z,16.50
2022-08-03T03:48:45.930Z,16.50
2022-08-03T03:51:13.130Z,16.50
2022-08-03T03:53:39.919Z,16.50
2022-08-03T03:56:06.655Z,16.40
2022-08-03T03:58:33.498Z,16.40
2022-08-03T04:01:00.763Z,16.30
2022-08-03T04:03:27.671Z,16.30
2022-08-03T04:06:13.313Z,16.40
2022-08-03T04:08:59.010Z,16.40
2022-08-03T04:11:50.481Z,16.40
2022-08-03T04:14:28.496Z,16.30
2022-08-03T04:16:58.888Z,16.30
2022-08-03T04:19:33.766Z,16.30
2022-08-03T04:22:05.500Z,16.30
2022-08-03T04:24:41.038Z,16.40
2022-08-03T04:27:11.403Z,16.50
2022-08-03T04:29:46.395Z,16.50
2022-08-03T04:32:16.805Z,16.40
2022-08-03T04:34:44.243Z,16.40
2022-08-03T04:37:35.269Z,16.50
2022-08-03T04:40:05.469Z,16.50
2022-08-03T04:42:33.819Z,16.60
2022-08-03T04:45:03.811Z,16.60
2022-08-03T04:47:33.529Z,16.60
2022-08-03T04:50:08.064Z,16.60
2022-08-03T04:52:37.391Z,16.70
2022-08-03T04:55:04.574Z,16.70
2022-08-03T04:57:31.367Z,16.80
2022-08-03T05:00:03.128Z,16.80
2022-08-03T05:02:31.803Z,16.80
2022-08-03T05:04:59.029Z,16.80
2022-08-03T05:07:25.835Z,16.90
2022-08-03T05:10:01.365Z,16.90
2022-08-03T05:12:32.803Z,16.90
2022-08-03T05:15:00.716Z,16.90
2022-08-03T05:17:28.362Z,17.00
2022-08-03T05:19:55.883Z,17.00
2022-08-03T05:22:23.332Z,17.10
2022-08-03T05:24:50.076Z,17.10
2022-08-03T05:27:19.898Z,17.00
2022-08-03T05:29:48.491Z,17.10
2022-08-03T05:32:16.102Z,17.10
2022-08-03T05:34:43.526Z,17.20
2022-08-03T05:37:10.998Z,17.40
2022-08-03T05:39:38.255Z,17.70
2022-08-03T05:42:04.949Z,20.40
2022-08-03T05:44:32.093Z,22.80
2022-08-03T05:46:59.344Z,22.90
2022-08-03T05:56:16.553Z,24.30
2022-08-03T05:58:47.826Z,23.50
2022-08-03T06:01:16.805Z,22.60
2022-08-03T06:03:44.385Z,22.80
2022-08-03T06:06:11.605Z,23.60
2022-08-03T06:08:38.907Z,24.70
2022-08-03T06:11:05.937Z,24.70
2022-08-03T06:13:32.873Z,24.20
2022-08-03T06:15:59.762Z,23.50
2022-08-03T06:18:26.682Z,22.80
2022-08-03T06:20:55.368Z,22.20
2022-08-03T06:23:25.300Z,21.80
2022-08-03T06:26:09.478Z,21.60
2022-08-03T06:28:53.368Z,21.50
2022-08-03T06:31:33.174Z,21.50
2022-08-03T06:34:33.153Z,21.50
2022-08-03T06:36:50.876Z,21.60
2022-08-03T06:39:19.053Z,21.70
2022-08-03T06:41:45.806Z,21.80
2022-08-03T06:44:13.148Z,22.00
2022-08-03T06:46:40.499Z,22.20
2022-08-03T06:49:07.872Z,22.40
2022-08-03T06:52:04.086Z,22.60
2022-08-03T06:54:24.578Z,22.80
2022-08-03T06:56:51.973Z,22.90
2022-08-03T07:00:07.695Z,23.00
2022-08-03T07:02:07.470Z,23.10
2022-08-03T07:04:34.241Z,23.40
2022-08-03T07:07:02.241Z,23.60
2022-08-03T07:09:29.130Z,23.80
2022-08-03T07:11:56.997Z,23.90
2022-08-03T07:14:23.747Z,24.00
2022-08-03T07:16:50.523Z,24.20
2022-08-03T07:19:17.339Z,24.30
2022-08-03T07:21:45.421Z,24.40
2022-08-03T07:24:12.165Z,24.60
2022-08-03T07:26:38.988Z,24.90
2022-08-03T07:29:07.910Z,25.10
2022-08-03T07:31:42.186Z,25.30
2022-08-03T07:34:09.084Z,25.40
2022-08-03T07:36:35.935Z,25.50
2022-08-03T07:39:16.592Z,25.60
2022-08-03T07:41:45.693Z,25.90
2022-08-03T07:44:12.788Z,26.10
2022-08-03T07:46:39.576Z,26.30
2022-08-03T07:49:06.445Z,26.50
2022-08-03T07:51:33.298Z,26.60
2022-08-03T07:54:00.895Z,26.60
2022-08-03T07:59:29.822Z,26.80
2022-08-03T08:02:16.850Z,26.90
2022-08-03T08:04:44.913Z,27.00
2022-08-03T08:07:11.858Z,27.20
2022-08-03T08:09:38.892Z,27.40
2022-08-03T08:12:15.088Z,27.40
2022-08-03T08:14:45.611Z,27.60
2022-08-03T08:17:13.027Z,27.70
2022-08-03T08:19:51.445Z,27.70
2022-08-03T08:22:28.749Z,27.90
2022-08-03T08:24:58.914Z,28.00
2022-08-03T08:27:26.049Z,28.00
2022-08-03T08:29:56.351Z,28.10
2022-08-03T08:32:24.350Z,28.30
2022-08-03T08:34:51.117Z,28.40
2022-08-03T08:37:18.105Z,28.50
2022-08-03T08:39:44.889Z,28.60
2022-08-03T08:42:11.795Z,28.60
2022-08-03T08:44:39.224Z,28.60
2022-08-03T08:47:08.074Z,28.70
2022-08-03T08:49:38.243Z,28.80
2022-08-03T08:52:29.556Z,28.80
2022-08-03T08:55:00.219Z,28.90
2022-08-03T08:57:42.383Z,28.80
2022-08-03T09:00:14.198Z,28.90
2022-08-03T09:02:42.760Z,28.90
2022-08-03T09:05:15.492Z,29.00
2022-08-03T09:07:43.662Z,29.00
2022-08-03T09:10:13.738Z,29.00
2022-08-03T09:12:46.125Z,29.20
2022-08-03T09:15:32.968Z,29.30
2022-08-03T09:18:01.943Z,29.50
2022-08-03T09:20:31.396Z,29.40
2022-08-03T09:23:09.673Z,29.40
2022-08-03T09:25:57.306Z,29.40
2022-08-03T09:29:00.466Z,29.40
2022-08-03T09:31:31.071Z,29.30
2022-08-03T09:34:01.203Z,29.30
2022-08-03T09:36:38.462Z,29.20
2022-08-03T09:39:10.778Z,29.30
2022-08-03T09:41:39.420Z,29.30
2022-08-03T09:44:06.613Z,29.30
2022-08-03T09:46:56.416Z,29.30
2022-08-03T09:49:24.451Z,29.50
2022-08-03T09:52:32.450Z,29.60
2022-08-03T09:54:38.700Z,29.70
2022-08-03T09:57:05.677Z,29.70
2022-08-03T09:59:33.520Z,29.80
2022-08-03T10:02:01.742Z,29.80
2022-08-03T10:04:28.859Z,29.90
2022-08-03T10:07:09.204Z,30.00
2022-08-03T10:09:37.578Z,30.10
2022-08-03T10:12:10.034Z,30.20
2022-08-03T10:14:46.611Z,30.20
2022-08-03T10:17:14.001Z,30.30
2022-08-03T10:19:41.502Z,30.30
2022-08-03T10:22:15.297Z,30.20
2022-08-03T10:25:15.722Z,30.30
2022-08-03T10:27:45.666Z,30.40
2022-08-03T10:30:12.682Z,30.40
2022-08-03T10:32:57.546Z,30.40
2022-08-03T10:35:26.052Z,30.40
2022-08-03T10:38:06.062Z,30.20
2022-08-03T10:40:51.038Z,30.10
2022-08-03T10:43:27.496Z,30.20
2022-08-03T10:45:56.046Z,30.30
2022-08-03T10:48:23.094Z,30.40
2022-08-03T10:50:50.653Z,30.50
2022-08-03T10:53:35.395Z,30.50
2022-08-03T10:56:35.399Z,30.60
2022-08-03T10:59:08.901Z,30.50
2022-08-03T11:02:03.604Z,30.60
2022-08-03T11:04:30.826Z,30.80
2022-08-03T11:07:16.597Z,30.80
2022-08-03T11:09:47.604Z,30.90
2022-08-03T11:12:33.778Z,30.90
2022-08-03T11:15:04.389Z,31.00
2022-08-03T11:17:32.699Z,31.10
2022-08-03T11:19:59.614Z,31.10
2022-08-03T11:22:50.829Z,31.10
2022-08-03T11:25:53.815Z,31.10
2022-08-03T11:28:30.618Z,31.10
2022-08-03T11:31:39.320Z,31.20
2022-08-03T11:34:06.240Z,31.30
2022-08-03T11:37:10.591Z,31.30
2022-08-03T11:39:41.028Z,31.30
2022-08-03T11:42:23.110Z,31.40
2022-08-03T11:44:54.626Z,31.30
2022-08-03T11:47:22.707Z,31.20
2022-08-03T11:49:51.372Z,31.30
2022-08-03T11:52:19.442Z,31.40
2022-08-03T11:54:56.545Z,31.30
2022-08-03T11:58:57.732Z,31.40
2022-08-03T12:00:22.909Z,31.50
2022-08-03T12:24:13.666Z,32.00
2022-08-03T12:26:58.122Z,32.00
2022-08-03T12:29:26.628Z,32.10
2022-08-03T12:31:53.467Z,32.20
2022-08-03T12:34:20.243Z,32.30
2022-08-03T12:36:52.606Z,32.20
2022-08-03T12:39:24.343Z,32.20
2022-08-03T12:41:54.481Z,32.10
2022-08-03T12:44:31.327Z,32.20
2022-08-03T12:46:59.066Z,32.30
2022-08-03T12:49:26.035Z,32.30
2022-08-03T12:51:52.785Z,32.20
2022-08-03T12:54:24.188Z,32.20
2022-08-03T12:57:00.811Z,32.30
2022-08-03T12:59:32.514Z,32.20
2022-08-03T13:02:09.423Z,32.20
2022-08-03T13:04:36.840Z,32.40
2022-08-03T13:07:06.471Z,32.40
2022-08-03T13:09:55.753Z,32.30
2022-08-03T13:12:25.106Z,32.50
2022-08-03T13:14:56.922Z,32.70
2022-08-03T13:17:24.292Z,32.70
2022-08-03T13:19:51.525Z,32.70
2022-08-03T13:22:24.176Z,32.70
2022-08-03T13:24:53.205Z,32.80
2022-08-03T13:28:10.988Z,32.80
2022-08-03T13:30:08.742Z,32.90
2022-08-03T13:32:35.579Z,32.90
2022-08-03T13:35:02.885Z,32.90
2022-08-03T13:37:32.058Z,32.90
2022-08-03T13:40:02.505Z,32.70
2022-08-03T13:42:31.573Z,32.70
2022-08-03T13:44:59.584Z,32.80
2022-08-03T13:47:27.085Z,32.70
2022-08-03T13:50:00.542Z,32.80
2022-08-03T13:52:33.972Z,33.00
2022-08-03T13:55:02.323Z,32.90
2022-08-03T13:58:04.252Z,33.00
2022-08-03T14:00:26.542Z,33.00
2022-08-03T14:03:01.853Z,33.20
2022-08-03T14:05:34.251Z,33.30
2022-08-03T14:08:04.851Z,33.10
2022-08-03T14:10:33.982Z,33.10
2022-08-03T14:13:00.833Z,33.00
2022-08-03T14:15:28.655Z,33.00
2022-08-03T14:17:58.763Z,33.10
2022-08-03T14:20:38.836Z,33.00
2022-08-03T14:23:14.784Z,33.00
2022-08-03T14:25:44.250Z,32.80
2022-08-03T14:28:18.481Z,32.80
2022-08-03T14:30:45.614Z,32.80
2022-08-03T14:33:12.336Z,32.70
2022-08-03T14:35:39.043Z,32.80
2022-08-03T14:38:06.024Z,32.90
2022-08-03T14:40:32.840Z,33.00
2022-08-03T14:42:59.748Z,32.90
2022-08-03T14:45:26.505Z,32.90
2022-08-03T14:50:28.836Z,32.90
2022-08-03T14:50:44.367Z,32.90
2022-08-03T14:53:12.649Z,32.90
2022-08-03T14:55:49.852Z,33.00
2022-08-03T14:58:27.769Z,33.00
2022-08-03T15:00:55.600Z,33.10
2022-08-03T15:03:24.622Z,33.10
2022-08-03T15:05:56.390Z,33.10
2022-08-03T15:08:24.443Z,33.20
2022-08-03T15:10:51.487Z,33.10
2022-08-03T15:13:19.628Z,33.00
2022-08-03T15:15:46.885Z,33.00
2022-08-03T15:18:13.715Z,32.90
2022-08-03T15:20:44.924Z,32.70
2022-08-03T15:23:12.950Z,32.70
2022-08-03T15:26:04.261Z,32.70
2022-08-03T15:28:26.585Z,32.80
2022-08-03T15:30:53.483Z,33.00
2022-08-03T15:33:20.334Z,33.10
2022-08-03T15:35:47.613Z,33.10
2022-08-03T15:38:14.623Z,33.20
2022-08-03T15:40:41.980Z,33.20
2022-08-03T15:43:08.952Z,33.20
2022-08-03T15:45:36.801Z,33.10
2022-08-03T15:48:05.743Z,33.10
2022-08-03T15:50:32.501Z,33.20
2022-08-03T15:52:59.275Z,33.20
2022-08-03T15:55:26.115Z,33.20
2022-08-03T15:59:09.157Z,33.10
2022-08-03T16:00:40.950Z,33.00
2022-08-03T16:03:08.110Z,32.90
2022-08-03T16:05:35.743Z,32.90
2022-08-03T16:08:04.171Z,32.90
2022-08-03T16:10:32.271Z,32.90
2022-08-03T16:13:00.248Z,32.90
2022-08-03T16:15:27.892Z,33.00
2022-08-03T16:17:54.845Z,32.90
2022-08-03T16:20:31.438Z,32.90
2022-08-03T16:23:03.392Z,32.90
2022-08-03T16:25:42.755Z,32.80
2022-08-03T16:28:14.223Z,32.80
2022-08-03T16:30:43.320Z,32.80
2022-08-03T16:33:10.670Z,32.80
2022-08-03T16:35:37.913Z,32.60
2022-08-03T16:38:09.995Z,32.60
2022-08-03T16:40:37.750Z,32.50
2022-08-03T16:43:18.379Z,32.50
2022-08-03T16:45:46.989Z,32.50
2022-08-03T16:48:15.011Z,32.50
2022-08-03T16:50:41.831Z,32.50
2022-08-03T16:53:10.017Z,32.50
2022-08-03T16:55:43.480Z,32.50
2022-08-03T16:58:19.691Z,32.40
2022-08-03T17:01:10.804Z,32.50
2022-08-03T17:04:02.197Z,32.50
2022-08-03T17:06:36.641Z,32.40
2022-08-03T17:09:08.770Z,32.30
2022-08-03T17:11:38.797Z,32.40
2022-08-03T17:14:12.032Z,32.40
2022-08-03T17:16:39.439Z,32.40
2022-08-03T17:19:20.482Z,32.40
2022-08-03T17:21:56.467Z,32.30
2022-08-03T17:24:31.939Z,32.20
2022-08-03T17:27:04.133Z,32.30
2022-08-03T17:29:44.976Z,32.20
2022-08-03T17:32:18.188Z,32.30
2022-08-03T17:34:48.976Z,32.10
2022-08-03T17:37:27.245Z,32.30
2022-08-03T17:40:04.228Z,32.20
2022-08-03T17:42:33.041Z,32.00
2022-08-03T17:45:03.790Z,31.90
2022-08-03T17:47:41.834Z,31.90
2022-08-03T17:50:24.855Z,31.90
2022-08-03T17:53:07.039Z,31.80
2022-08-03T17:55:55.282Z,31.70
2022-08-03T17:58:54.756Z,31.60
2022-08-03T18:01:59.837Z,31.60
2022-08-03T18:04:38.194Z,31.60
2022-08-03T18:07:12.614Z,31.40
2022-08-03T18:10:06.302Z,31.30
2022-08-03T18:13:10.607Z,31.20
2022-08-03T18:15:46.885Z,31.10
2022-08-03T18:18:17.282Z,31.10
2022-08-03T18:21:04.662Z,31.00
2022-08-03T18:23:37.263Z,30.80
2022-08-03T18:26:07.840Z,30.70
2022-08-03T18:28:39.682Z,30.60
2022-08-03T18:31:12.594Z,30.50
2022-08-03T18:34:18.637Z,30.40
2022-08-03T18:36:30.313Z,30.30
2022-08-03T18:38:59.383Z,30.10
2022-08-03T18:41:32.172Z,29.90
2022-08-03T18:44:45.686Z,29.70
2022-08-03T18:47:50.531Z,29.40
2022-08-03T18:50:25.330Z,29.30
2022-08-03T18:53:00.082Z,29.00
2022-08-03T18:58:53.771Z,28.70
2022-08-03T19:01:57.694Z,28.60
2022-08-03T19:04:33.465Z,28.40
2022-08-03T19:07:09.450Z,28.20
2022-08-03T19:09:54.378Z,28.10
2022-08-03T19:12:37.420Z,28.00
2022-08-03T19:15:12.894Z,27.90
2022-08-03T19:17:43.390Z,27.80
2022-08-03T19:20:21.932Z,27.70
2022-08-03T19:22:51.067Z,27.50
2022-08-03T19:25:18.384Z,27.40
2022-08-03T19:27:46.924Z,27.30
2022-08-03T19:30:38.887Z,27.10
2022-08-03T19:33:13.925Z,27.00
2022-08-03T19:35:55.090Z,26.90
2022-08-03T19:38:29.069Z,27.00
2022-08-03T19:40:59.678Z,27.00
2022-08-03T19:43:53.057Z,26.90
2022-08-03T19:46:30.035Z,26.80
2022-08-03T19:49:10.435Z,26.70
2022-08-03T19:51:58.472Z,26.60
2022-08-03T19:54:45.591Z,26.40
2022-08-03T19:57:23.955Z,26.20
2022-08-03T19:59:52.390Z,26.20
2022-08-03T20:02:25.701Z,26.20
2022-08-03T20:04:55.306Z,26.10
2022-08-03T20:07:23.752Z,26.00
2022-08-03T20:09:56.114Z,25.90
2022-08-03T20:12:49.992Z,25.80
2022-08-03T20:15:18.287Z,25.70
2022-08-03T20:17:58.849Z,25.60
2022-08-03T20:20:31.895Z,25.50
2022-08-03T20:23:00.498Z,25.50
2022-08-03T20:25:38.068Z,25.40
2022-08-03T20:28:13.902Z,25.40
2022-08-03T20:30:43.762Z,25.40
2022-08-03T20:33:11.148Z,25.30
2022-08-03T20:35:38.107Z,25.20
2022-08-03T20:38:09.252Z,25.10
2022-08-03T20:40:38.342Z,25.10
2022-08-03T20:43:09.251Z,25.10
2022-08-03T20:46:00.771Z,25.00
2022-08-03T20:48:26.394Z,25.00
2022-08-03T20:50:55.306Z,24.80
2022-08-03T20:53:22.144Z,24.70
2022-08-03T20:56:09.634Z,24.60
2022-08-03T20:58:36.901Z,24.60
2022-08-03T21:01:08.293Z,24.50
2022-08-03T21:03:40.513Z,24.50
2022-08-03T21:06:12.122Z,24.40
2022-08-03T21:08:46.962Z,24.40
2022-08-03T21:11:24.866Z,24.40
2022-08-03T21:13:09.041Z,28.90
2022-08-03T21:14:01.689Z,24.30
2022-08-03T21:16:32.478Z,24.30
2022-08-03T21:19:02.660Z,24.20
2022-08-03T21:21:32.594Z,24.20
2022-08-03T21:24:00.572Z,24.10
2022-08-03T21:26:29.064Z,24.00
2022-08-03T21:28:56.895Z,24.00
2022-08-03T21:31:26.570Z,23.90
2022-08-03T21:33:58.414Z,23.90
2022-08-03T21:36:28.019Z,23.90
2022-08-03T21:38:57.284Z,23.90
2022-08-03T21:41:30.047Z,23.90
2022-08-03T21:43:57.193Z,23.80
2022-08-03T21:46:27.385Z,23.70
2022-08-03T21:50:05.805Z,23.70
2022-08-03T21:51:48.610Z,23.60
2022-08-03T21:54:16.598Z,23.50
2022-08-03T21:56:47.143Z,23.50
2022-08-03T21:59:19.671Z,23.40
2022-08-03T22:01:49.070Z,23.40
2022-08-03T22:04:50.886Z,23.30
2022-08-03T22:07:08.447Z,23.30
2022-08-03T22:09:36.380Z,23.30
2022-08-03T22:12:03.669Z,23.20
2022-08-03T22:14:32.719Z,23.10
2022-08-03T22:17:00.182Z,23.00
2022-08-03T22:19:26.903Z,22.90
2022-08-03T22:21:54.380Z,23.00
2022-08-03T22:24:23.846Z,22.90
2022-08-03T22:27:10.186Z,22.90
2022-08-03T22:29:39.638Z,22.90
2022-08-03T22:32:07.154Z,22.90
2022-08-03T22:34:34.190Z,22.90
2022-08-03T22:37:04.304Z,22.90
2022-08-03T22:39:31.643Z,22.90
2022-08-03T22:42:01.165Z,22.80
2022-08-03T22:44:28.073Z,22.80
2022-08-03T22:46:55.969Z,22.70
2022-08-03T22:49:22.740Z,22.70
2022-08-03T22:51:51.633Z,22.60
2022-08-03T22:54:18.567Z,22.50
2022-08-03T22:56:49.893Z,22.50
2022-08-03T22:59:40.599Z,22.40
2022-08-03T23:02:20.200Z,22.30
2022-08-03T23:04:51.723Z,22.30
2022-08-03T23:07:32.595Z,22.40
2022-08-03T23:10:01.716Z,22.30
2022-08-03T23:12:31.517Z,22.30
2022-08-03T23:15:02.340Z,22.30
2022-08-03T23:17:31.114Z,22.30
2022-08-03T23:20:05.600Z,22.20
2022-08-03T23:22:34.160Z,22.20
2022-08-03T23:25:04.643Z,22.10
2022-08-03T23:27:33.132Z,22.10
2022-08-03T23:30:01.693Z,22.10
2022-08-03T23:32:30.273Z,22.00
2022-08-03T23:35:18.544Z,22.00
2022-08-03T23:38:03.992Z,22.00
2022-08-03T23:40:33.875Z,22.00
2022-08-03T23:43:02.009Z,21.90
2022-08-03T23:45:31.260Z,21.90
2022-08-03T23:47:57.914Z,21.90
2022-08-03T23:50:27.752Z,21.90
2022-08-03T23:53:02.710Z,21.80
2022-08-03T23:56:06.629Z,21.80
2022-08-03T23:59:03.729Z,21.80
